createdAt,value
2022-10-20T00:00:23.190Z,7.32
2022-10-20T00:02:50.096Z,7.43
2022-10-20T00:05:17.432Z,8.25
2022-10-20T00:07:44.409Z,8.45
2022-10-20T00:10:11.411Z,7.60
2022-10-20T00:12:38.624Z,8.55
2022-10-20T00:15:06.094Z,8.40
2022-10-20T00:17:32.992Z,7.65
2022-10-20T00:19:59.935Z,8.65
2022-10-20T00:22:26.867Z,8.05
2022-10-20T00:24:53.775Z,9.73
2022-10-20T00:27:20.673Z,9.35
2022-10-20T00:29:48.887Z,8.10
2022-10-20T00:32:15.990Z,8.45
2022-10-20T00:34:43.143Z,8.82
2022-10-20T00:37:10.007Z,9.02
2022-10-20T00:39:36.885Z,9.50
2022-10-20T00:42:04.856Z,9.68
2022-10-20T00:44:50.247Z,9.27
2022-10-20T00:47:40.147Z,9.07
2022-10-20T00:50:16.878Z,8.98
2022-10-20T00:52:44.974Z,9.68
2022-10-20T00:55:15.659Z,9.52
2022-10-20T00:57:44.187Z,10.10
2022-10-20T01:00:11.590Z,8.60
2022-10-20T01:02:38.605Z,9.35
2022-10-20T01:05:06.330Z,9.80
2022-10-20T01:07:33.317Z,9.93
2022-10-20T01:10:00.649Z,9.27
2022-10-20T01:12:50.529Z,9.38
2022-10-20T01:15:39.182Z,8.68
2022-10-20T01:18:28.842Z,8.45
2022-10-20T01:21:05.353Z,9.18
2022-10-20T01:23:38.287Z,10.30
2022-10-20T01:26:14.016Z,8.82
2022-10-20T01:29:14.791Z,9.60
2022-10-20T01:31:49.004Z,8.25
2022-10-20T01:34:28.520Z,8.63
2022-10-20T01:37:28.327Z,7.68
2022-10-20T01:40:22.647Z,8.70
2022-10-20T01:42:51.394Z,7.60
2022-10-20T01:45:19.336Z,8.73
2022-10-20T01:47:47.965Z,8.23
2022-10-20T01:50:15.303Z,8.10
2022-10-20T01:52:42.166Z,7.97
2022-10-20T01:55:17.945Z,8.38
2022-10-20T01:58:14.885Z,7.78
2022-10-20T02:00:42.540Z,7.45
2022-10-20T02:03:27.873Z,7.40
2022-10-20T02:06:19.594Z,8.32
2022-10-20T02:08:53.117Z,7.35
2022-10-20T02:11:26.289Z,7.70
2022-10-20T02:16:31.133Z,7.93
2022-10-20T02:21:30.898Z,6.97
2022-10-20T02:24:03.609Z,7.78
2022-10-20T02:26:32.424Z,7.07
2022-10-20T02:29:01.726Z,7.30
2022-10-20T02:31:28.682Z,7.25
2022-10-20T02:33:56.767Z,7.18
2022-10-20T02:36:26.949Z,7.10
2022-10-20T02:38:54.081Z,5.93
2022-10-20T02:41:20.953Z,5.88
2022-10-20T02:43:47.881Z,6.40
2022-10-20T02:48:46.498Z,5.43
2022-10-20T02:51:13.723Z,5.90
2022-10-20T02:53:40.579Z,6.82
2022-10-20T02:56:07.707Z,5.55
2022-10-20T02:58:34.574Z,5.80
2022-10-20T03:01:01.684Z,5.97
2022-10-20T03:03:28.567Z,5.43
2022-10-20T03:05:55.578Z,6.20
2022-10-20T03:08:22.597Z,5.50
2022-10-20T03:10:49.420Z,4.65
2022-10-20T03:13:16.427Z,4.25
2022-10-20T03:15:43.375Z,4.95
2022-10-20T03:18:10.276Z,4.43
2022-10-20T03:20:37.211Z,4.47
2022-10-20T03:23:04.147Z,5.57
2022-10-20T03:25:31.936Z,4.22
2022-10-20T03:27:59.130Z,4.68
2022-10-20T03:30:26.169Z,4.65
2022-10-20T03:32:53.331Z,3.65
2022-10-20T03:35:20.250Z,3.63
2022-10-20T03:37:47.143Z,3.70
2022-10-20T03:40:14.159Z,4.00
2022-10-20T03:42:41.103Z,4.15
2022-10-20T03:45:08.651Z,3.15
2022-10-20T03:47:35.565Z,3.40
2022-10-20T03:50:02.486Z,3.45
2022-10-20T03:52:29.458Z,3.42
2022-10-20T03:54:56.383Z,3.40
2022-10-20T03:57:23.245Z,3.10
2022-10-20T03:59:50.158Z,3.25
2022-10-20T04:02:50.192Z,3.35
2022-10-20T04:05:19.663Z,3.13
2022-10-20T04:07:47.126Z,3.10
2022-10-20T04:10:15.607Z,2.88
2022-10-20T04:12:42.935Z,2.88
2022-10-20T04:15:10.545Z,2.70
2022-10-20T04:17:43.479Z,3.00
2022-10-20T04:20:10.889Z,3.65
2022-10-20T04:22:38.855Z,2.90
2022-10-20T04:25:06.796Z,4.05
2022-10-20T04:27:33.894Z,3.30
2022-10-20T04:30:01.077Z,3.25
2022-10-20T04:32:28.527Z,2.80
2022-10-20T04:34:55.403Z,2.75
2022-10-20T04:37:22.345Z,2.22
2022-10-20T04:39:51.129Z,2.47
2022-10-20T04:42:18.841Z,2.42
2022-10-20T04:44:45.900Z,2.25
2022-10-20T04:47:13.199Z,2.78
2022-10-20T04:49:41.280Z,2.90
2022-10-20T04:52:08.088Z,2.42
2022-10-20T04:54:35.033Z,2.65
2022-10-20T04:57:02.006Z,3.10
2022-10-20T04:59:28.858Z,2.63
2022-10-20T05:01:55.809Z,2.45
2022-10-20T05:04:22.728Z,2.60
2022-10-20T05:06:50.133Z,2.83
2022-10-20T05:09:17.288Z,3.30
2022-10-20T05:11:44.551Z,3.30
2022-10-20T05:14:11.687Z,3.25
2022-10-20T05:16:38.614Z,3.45
2022-10-20T05:19:05.541Z,2.97
2022-10-20T05:21:32.742Z,3.30
2022-10-20T05:24:01.630Z,3.70
2022-10-20T05:26:32.546Z,3.63
2022-10-20T05:28:59.387Z,3.15
2022-10-20T05:31:26.314Z,4.28
2022-10-20T05:33:54.853Z,3.67
2022-10-20T05:36:25.259Z,4.90
2022-10-20T05:38:53.924Z,5.18
2022-10-20T05:41:22.758Z,4.72
2022-10-20T05:43:55.154Z,5.25
2022-10-20T05:46:22.257Z,5.07
2022-10-20T05:48:49.147Z,5.72
2022-10-20T05:51:20.507Z,5.90
2022-10-20T05:53:47.432Z,6.35
2022-10-20T05:56:18.180Z,6.75
2022-10-20T05:58:45.961Z,8.13
2022-10-20T06:01:20.413Z,7.55
2022-10-20T06:03:52.020Z,8.07
2022-10-20T06:06:20.573Z,7.90
2022-10-20T06:08:47.965Z,9.00
2022-10-20T06:11:15.683Z,7.03
2022-10-20T06:13:43.666Z,9.43
2022-10-20T06:16:14.690Z,7.82
2022-10-20T06:18:43.993Z,7.82
2022-10-20T06:21:22.646Z,8.48
2022-10-20T06:23:49.960Z,8.10
2022-10-20T06:26:19.514Z,8.23
2022-10-20T06:28:47.945Z,7.82
2022-10-20T06:31:19.065Z,7.28
2022-10-20T06:33:46.867Z,6.78
2022-10-20T06:36:14.448Z,8.02
2022-10-20T06:38:41.998Z,8.18
2022-10-20T06:41:12.346Z,8.48
2022-10-20T06:43:39.356Z,7.15
2022-10-20T06:46:08.408Z,7.43
2022-10-20T06:48:35.965Z,6.82
2022-10-20T06:51:05.621Z,7.90
2022-10-20T06:53:34.825Z,8.23
2022-10-20T06:56:06.372Z,8.45
2022-10-20T06:58:37.171Z,8.50
2022-10-20T07:01:09.999Z,8.35
2022-10-20T07:03:38.260Z,8.38
2022-10-20T07:06:06.225Z,9.07
2022-10-20T07:08:34.669Z,9.45
2022-10-20T07:11:08.815Z,9.63
2022-10-20T07:13:37.101Z,8.75
2022-10-20T07:16:05.416Z,10.57
2022-10-20T07:18:32.502Z,9.43
2022-10-20T07:21:01.341Z,9.57
2022-10-20T07:23:30.107Z,9.57
2022-10-20T07:26:12.283Z,9.43
2022-10-20T07:28:42.602Z,9.50
2022-10-20T07:31:12.783Z,9.75
2022-10-20T07:33:39.922Z,9.85
2022-10-20T07:36:24.797Z,9.98
2022-10-20T07:38:53.633Z,9.40
2022-10-20T07:41:21.134Z,8.93
2022-10-20T07:43:48.357Z,9.45
2022-10-20T07:46:15.643Z,8.55
2022-10-20T07:48:42.590Z,9.13
2022-10-20T07:51:16.900Z,8.07
2022-10-20T07:53:44.772Z,8.13
2022-10-20T07:56:12.248Z,7.43
2022-10-20T07:58:39.368Z,8.88
2022-10-20T08:01:06.444Z,8.82
2022-10-20T08:03:33.691Z,8.60
2022-10-20T08:06:00.838Z,9.05
2022-10-20T08:08:27.862Z,6.95
2022-10-20T08:10:54.929Z,8.40
2022-10-20T08:13:21.907Z,7.18
2022-10-20T08:15:50.909Z,8.35
2022-10-20T08:18:17.909Z,7.55
2022-10-20T08:20:48.536Z,7.80
2022-10-20T08:23:16.130Z,7.25
2022-10-20T08:25:43.169Z,6.80
2022-10-20T08:28:10.585Z,7.40
2022-10-20T08:30:37.717Z,7.07
2022-10-20T08:33:04.576Z,7.43
2022-10-20T08:35:31.449Z,7.22
2022-10-20T08:37:58.285Z,7.00
2022-10-20T08:40:28.283Z,6.35
2022-10-20T08:42:55.355Z,6.47
2022-10-20T08:45:27.110Z,7.45
2022-10-20T08:47:56.630Z,6.53
2022-10-20T08:50:24.931Z,6.80
2022-10-20T08:52:54.830Z,7.03
2022-10-20T08:55:32.253Z,6.18
2022-10-20T08:58:10.489Z,7.03
2022-10-20T09:00:38.553Z,6.30
2022-10-20T09:03:18.867Z,6.43
2022-10-20T09:05:49.684Z,6.40
2022-10-20T09:08:16.627Z,6.43
2022-10-20T09:10:48.966Z,6.60
2022-10-20T09:13:27.793Z,6.57
2022-10-20T09:16:08.445Z,6.20
2022-10-20T09:18:35.492Z,6.43
2022-10-20T09:21:16.454Z,6.15
2022-10-20T09:23:45.956Z,5.88
2022-10-20T09:26:30.419Z,6.10
2022-10-20T09:29:13.100Z,6.15
2022-10-20T09:32:03.773Z,5.72
2022-10-20T09:34:38.464Z,5.20
2022-10-20T09:37:12.912Z,5.20
2022-10-20T09:39:54.913Z,6.00
2022-10-20T09:42:29.219Z,5.73
2022-10-20T09:45:07.921Z,5.60
2022-10-20T09:47:35.387Z,5.82
2022-10-20T09:50:06.415Z,5.30
2022-10-20T09:52:44.531Z,4.85
2022-10-20T09:55:28.271Z,4.75
2022-10-20T09:57:56.343Z,4.93
2022-10-20T10:00:36.799Z,4.93
2022-10-20T10:03:09.313Z,5.75
2022-10-20T10:05:36.266Z,5.10
2022-10-20T10:08:03.114Z,5.05
2022-10-20T10:10:31.734Z,4.85
2022-10-20T10:15:37.733Z,5.43
2022-10-20T10:18:22.245Z,4.70
2022-10-20T10:20:59.011Z,5.32
2022-10-20T10:23:26.856Z,5.30
2022-10-20T10:25:57.896Z,4.63
2022-10-20T10:28:38.903Z,4.93
2022-10-20T10:31:23.618Z,4.95
2022-10-20T10:33:58.172Z,5.82
2022-10-20T10:36:36.040Z,5.90
2022-10-20T10:39:05.393Z,5.60
2022-10-20T10:41:55.357Z,6.28
2022-10-20T10:44:44.090Z,5.13
2022-10-20T10:47:32.552Z,4.85
2022-10-20T10:50:24.111Z,5.13
2022-10-20T10:53:10.030Z,5.22
2022-10-20T10:56:16.312Z,5.53
2022-10-20T10:59:10.354Z,5.90
2022-10-20T11:01:43.624Z,5.18
2022-10-20T11:04:47.262Z,5.10
2022-10-20T11:07:20.354Z,6.15
2022-10-20T11:13:09.646Z,6.30
2022-10-20T11:16:06.171Z,6.13
2022-10-20T11:18:49.389Z,6.68
2022-10-20T11:24:03.678Z,6.80
2022-10-20T11:26:42.129Z,6.47
2022-10-20T11:29:17.104Z,6.30
2022-10-20T11:31:54.695Z,7.82
2022-10-20T11:34:27.099Z,6.10
2022-10-20T11:37:03.816Z,6.75
2022-10-20T11:39:43.014Z,6.55
2022-10-20T11:42:41.825Z,6.10
2022-10-20T11:45:33.130Z,5.97
2022-10-20T11:48:29.552Z,6.47
2022-10-20T11:51:11.505Z,6.47
2022-10-20T11:54:07.678Z,7.60
2022-10-20T11:57:09.445Z,6.90
2022-10-20T11:59:54.952Z,7.53
2022-10-20T12:02:52.467Z,7.60
2022-10-20T12:05:44.163Z,8.00
2022-10-20T12:08:30.488Z,7.72
2022-10-20T12:11:07.183Z,7.70
2022-10-20T12:14:15.179Z,7.03
2022-10-20T12:16:53.873Z,7.45
2022-10-20T12:19:25.404Z,8.07
2022-10-20T12:22:02.322Z,8.73
2022-10-20T12:24:39.772Z,8.40
2022-10-20T12:27:09.353Z,6.32
2022-10-20T12:29:36.185Z,7.45
2022-10-20T12:32:21.651Z,7.68
2022-10-20T12:34:59.563Z,8.25
2022-10-20T12:37:30.401Z,7.38
2022-10-20T12:40:20.168Z,7.72
2022-10-20T12:42:48.877Z,7.22
2022-10-20T12:45:18.429Z,7.72
2022-10-20T12:47:57.018Z,8.13
2022-10-20T12:50:40.335Z,8.02
2022-10-20T12:55:45.457Z,7.20
2022-10-20T12:58:19.312Z,7.35
2022-10-20T13:00:51.644Z,8.48
2022-10-20T13:04:03.206Z,7.32
2022-10-20T13:06:31.770Z,8.07
2022-10-20T13:09:04.670Z,8.30
2022-10-20T13:14:27.840Z,7.80
2022-10-20T13:19:45.413Z,8.90
2022-10-20T13:22:31.687Z,8.73
2022-10-20T13:24:59.912Z,9.68
2022-10-20T13:27:28.975Z,10.13
2022-10-20T13:29:56.095Z,9.55
2022-10-20T13:32:30.851Z,9.13
2022-10-20T13:35:19.096Z,9.43
2022-10-20T13:38:03.556Z,10.00
2022-10-20T13:40:39.881Z,10.45
2022-10-20T13:43:31.177Z,9.80
2022-10-20T13:46:26.379Z,10.65
2022-10-20T13:49:08.048Z,14.63
2022-10-20T13:51:43.465Z,12.48
2022-10-20T13:54:24.227Z,11.02
2022-10-20T13:56:51.632Z,11.27
2022-10-20T13:59:19.434Z,10.55
2022-10-20T14:01:51.405Z,10.70
2022-10-20T14:04:28.620Z,11.00
2022-10-20T14:06:56.482Z,12.90
2022-10-20T14:09:24.960Z,12.55
2022-10-20T14:11:55.585Z,12.68
2022-10-20T14:14:25.579Z,14.80
2022-10-20T14:16:58.773Z,14.68
2022-10-20T14:19:30.658Z,11.52
2022-10-20T14:22:00.385Z,12.55
2022-10-20T14:24:31.663Z,12.55
2022-10-20T14:27:00.827Z,12.95
2022-10-20T14:29:33.910Z,13.57
2022-10-20T14:34:35.337Z,12.68
2022-10-20T14:37:03.234Z,13.27
2022-10-20T14:39:40.552Z,13.23
2022-10-20T14:42:30.003Z,13.95
2022-10-20T14:44:57.985Z,12.73
2022-10-20T14:47:25.591Z,14.88
2022-10-20T14:49:54.051Z,13.55
2022-10-20T14:52:23.302Z,15.18
2022-10-20T14:54:51.574Z,14.52
2022-10-20T14:57:19.037Z,15.02
2022-10-20T15:00:03.777Z,14.38
2022-10-20T15:02:33.050Z,14.65
2022-10-20T15:05:39.825Z,14.38
2022-10-20T15:08:31.332Z,13.90
2022-10-20T15:10:58.696Z,13.32
2022-10-20T15:13:33.008Z,13.93
2022-10-20T15:16:02.389Z,13.70
2022-10-20T15:18:29.947Z,15.18
2022-10-20T15:20:56.915Z,12.88
2022-10-20T15:23:29.973Z,13.65
2022-10-20T15:28:48.114Z,13.68
2022-10-20T15:31:32.977Z,13.32
2022-10-20T15:33:59.853Z,13.93
2022-10-20T15:36:41.734Z,15.95
2022-10-20T15:39:09.385Z,13.13
2022-10-20T15:41:36.941Z,14.00
2022-10-20T15:44:21.839Z,13.30
2022-10-20T15:46:50.539Z,13.35
2022-10-20T15:49:17.422Z,13.40
2022-10-20T15:51:46.293Z,12.20
2022-10-20T15:54:18.563Z,11.93
2022-10-20T15:56:45.902Z,12.75
2022-10-20T15:59:12.750Z,12.15
2022-10-20T16:01:39.767Z,12.95
2022-10-20T16:04:23.339Z,12.63
2022-10-20T16:06:57.685Z,11.55
2022-10-20T16:09:26.161Z,11.90
2022-10-20T16:11:53.111Z,12.23
2022-10-20T16:14:19.944Z,11.93
2022-10-20T16:16:46.843Z,11.77
2022-10-20T16:19:14.036Z,11.00
2022-10-20T16:21:41.626Z,10.48
2022-10-20T16:24:08.589Z,10.95
2022-10-20T16:26:35.537Z,11.73
2022-10-20T16:29:02.560Z,11.77
2022-10-20T16:31:29.547Z,10.73
2022-10-20T16:33:59.490Z,12.07
2022-10-20T16:36:26.364Z,11.13
2022-10-20T16:38:57.069Z,10.88
2022-10-20T16:41:24.044Z,11.88
2022-10-20T16:43:50.966Z,11.25
2022-10-20T16:46:17.811Z,10.63
2022-10-20T16:48:48.078Z,11.60
2022-10-20T16:51:16.197Z,10.73
2022-10-20T16:53:43.455Z,11.05
2022-10-20T16:56:10.275Z,12.48
2022-10-20T16:58:37.229Z,10.90
2022-10-20T17:01:09.850Z,10.32
2022-10-20T17:03:38.210Z,11.48
2022-10-20T17:06:07.223Z,11.48
2022-10-20T17:08:36.077Z,10.05
2022-10-20T17:11:08.770Z,10.73
2022-10-20T17:13:37.129Z,10.85
2022-10-20T17:16:10.000Z,10.73
2022-10-20T17:18:37.046Z,10.23
2022-10-20T17:21:04.578Z,9.63
2022-10-20T17:23:35.235Z,26.83
2022-10-20T17:26:04.973Z,21.80
2022-10-20T17:28:33.407Z,12.45
2022-10-20T17:31:00.321Z,23.75
2022-10-20T17:33:28.233Z,16.67
2022-10-20T17:35:57.123Z,11.68
2022-10-20T17:38:24.703Z,10.18
2022-10-20T17:40:51.668Z,9.18
2022-10-20T17:43:18.733Z,9.65
2022-10-20T17:45:58.059Z,8.52
2022-10-20T17:48:25.130Z,10.02
2022-10-20T17:51:17.047Z,8.10
2022-10-20T17:53:45.722Z,9.80
2022-10-20T17:56:15.145Z,7.45
2022-10-20T17:58:43.549Z,10.00
2022-10-20T18:01:19.384Z,9.05
2022-10-20T18:03:47.825Z,8.52
2022-10-20T18:06:18.452Z,9.55
2022-10-20T18:08:46.732Z,9.18
2022-10-20T18:11:22.095Z,8.73
2022-10-20T18:13:49.307Z,8.95
2022-10-20T18:16:18.106Z,10.60
2022-10-20T18:18:45.104Z,10.60
2022-10-20T18:21:13.529Z,20.08
2022-10-20T18:23:43.776Z,17.10
2022-10-20T18:26:13.190Z,9.02
2022-10-20T18:28:42.074Z,12.60
2022-10-20T18:31:18.036Z,17.45
2022-10-20T18:33:45.599Z,6.80
2022-10-20T18:36:15.361Z,7.68
2022-10-20T18:38:43.700Z,10.48
2022-10-20T18:41:21.773Z,8.20
2022-10-20T18:43:58.005Z,7.55
2022-10-20T18:46:28.578Z,7.95
2022-10-20T18:48:56.240Z,7.63
2022-10-20T18:51:23.488Z,7.93
2022-10-20T18:53:53.733Z,8.02
2022-10-20T18:56:22.733Z,8.10
2022-10-20T18:58:55.337Z,8.05
2022-10-20T19:01:24.132Z,7.22
2022-10-20T19:03:52.761Z,9.18
2022-10-20T19:06:27.815Z,9.48
2022-10-20T19:08:56.698Z,8.63
2022-10-20T19:11:28.611Z,8.73
2022-10-20T19:17:33.617Z,9.65
2022-10-20T19:20:00.427Z,10.52
2022-10-20T19:22:29.388Z,9.23
2022-10-20T19:24:56.348Z,9.80
2022-10-20T19:27:27.374Z,9.90
2022-10-20T19:29:55.990Z,9.73
2022-10-20T19:32:22.856Z,9.88
2022-10-20T19:34:49.660Z,9.65
2022-10-20T19:37:16.697Z,10.50
2022-10-20T19:39:43.551Z,9.10
2022-10-20T19:42:11.239Z,9.35
2022-10-20T19:44:38.401Z,9.43
2022-10-20T19:47:06.196Z,9.73
2022-10-20T19:49:33.050Z,9.73
2022-10-20T19:52:00.367Z,9.35
2022-10-20T19:54:27.473Z,9.02
2022-10-20T19:56:54.342Z,9.95
2022-10-20T19:59:21.481Z,9.98
2022-10-20T20:01:49.717Z,10.32
2022-10-20T20:04:16.743Z,10.23
2022-10-20T20:06:43.533Z,10.52
2022-10-20T20:09:11.578Z,10.10
2022-10-20T20:11:39.248Z,10.25
2022-10-20T20:14:09.006Z,9.40
2022-10-20T20:16:36.250Z,10.80
2022-10-20T20:19:03.435Z,10.45
2022-10-20T20:21:30.541Z,10.45
2022-10-20T20:24:01.052Z,11.30
2022-10-20T20:26:33.453Z,13.38
2022-10-20T20:29:00.586Z,10.10
2022-10-20T20:31:28.008Z,12.43
2022-10-20T20:33:56.851Z,10.77
2022-10-20T20:36:26.223Z,10.73
2022-10-20T20:38:55.125Z,10.38
2022-10-20T20:41:26.048Z,11.07
2022-10-20T20:43:53.152Z,11.98
2022-10-20T20:46:21.017Z,11.35
2022-10-20T20:48:47.809Z,9.73
2022-10-20T20:51:15.393Z,8.90
2022-10-20T20:53:42.460Z,8.82
2022-10-20T20:56:12.223Z,8.27
2022-10-20T20:58:40.728Z,8.60
2022-10-20T21:01:19.123Z,9.77
2022-10-20T21:03:46.696Z,9.85
2022-10-20T21:06:16.892Z,9.43
2022-10-20T21:08:46.403Z,9.32
2022-10-20T21:11:14.241Z,9.93
2022-10-20T21:13:42.586Z,9.35
2022-10-20T21:16:13.897Z,8.57
2022-10-20T21:18:42.065Z,9.27
2022-10-20T21:21:14.964Z,9.43
2022-10-20T21:23:42.288Z,9.88
2022-10-20T21:26:10.865Z,9.25
2022-10-20T21:28:37.975Z,9.68
2022-10-20T21:31:09.658Z,10.15
2022-10-20T21:33:37.321Z,8.98
2022-10-20T21:36:23.709Z,9.50
2022-10-20T21:38:50.849Z,9.18
2022-10-20T21:41:22.643Z,9.05
2022-10-20T21:43:51.769Z,8.25
2022-10-20T21:46:24.266Z,9.18
2022-10-20T21:48:53.171Z,8.68
2022-10-20T21:51:25.320Z,10.02
2022-10-20T21:53:59.908Z,8.37
2022-10-20T21:56:27.475Z,8.57
2022-10-20T21:58:55.014Z,8.48
2022-10-20T22:01:24.426Z,7.80
2022-10-20T22:03:52.988Z,9.00
2022-10-20T22:06:21.841Z,8.38
2022-10-20T22:08:50.508Z,8.50
2022-10-20T22:11:21.052Z,8.02
2022-10-20T22:13:48.312Z,8.70
2022-10-20T22:16:17.709Z,8.07
2022-10-20T22:18:45.040Z,7.40
2022-10-20T22:21:15.490Z,6.80
2022-10-20T22:23:43.841Z,7.10
2022-10-20T22:26:11.329Z,6.82
2022-10-20T22:28:38.491Z,7.30
2022-10-20T22:31:06.412Z,6.75
2022-10-20T22:33:33.596Z,7.28
2022-10-20T22:36:00.437Z,6.47
2022-10-20T22:38:27.224Z,7.05
2022-10-20T22:40:59.046Z,6.18
2022-10-20T22:43:26.596Z,5.80
2022-10-20T22:45:53.392Z,7.57
2022-10-20T22:48:20.379Z,6.85
2022-10-20T22:50:47.446Z,7.53
2022-10-20T22:53:14.455Z,6.80
2022-10-20T22:55:41.369Z,7.20
2022-10-20T22:58:08.241Z,7.32
2022-10-20T23:00:35.204Z,6.50
2022-10-20T23:03:02.012Z,7.32
2022-10-20T23:05:28.840Z,7.28
2022-10-20T23:07:55.644Z,7.28
2022-10-20T23:10:22.437Z,7.63
2022-10-20T23:12:49.248Z,7.38
2022-10-20T23:15:16.087Z,8.32
2022-10-20T23:17:42.921Z,7.85
2022-10-20T23:20:10.333Z,8.45
2022-10-20T23:22:37.132Z,8.85
2022-10-20T23:25:04.268Z,8.95
2022-10-20T23:27:33.748Z,8.93
2022-10-20T23:30:00.548Z,8.68
2022-10-20T23:32:27.472Z,8.77
2022-10-20T23:34:55.135Z,8.98
2022-10-20T23:37:23.765Z,9.20
2022-10-20T23:39:50.734Z,9.23
2022-10-20T23:42:20.463Z,8.82
2022-10-20T23:44:47.370Z,9.07
2022-10-20T23:47:14.196Z,8.90
2022-10-20T23:49:41.053Z,10.30
2022-10-20T23:52:07.852Z,10.18
2022-10-20T23:54:34.902Z,10.27
2022-10-20T23:57:02.595Z,9.57
2022-10-20T23:59:29.392Z,10.27
